Time;durP1;ratioP1;P1;durP2;ratioP2;P2;SDS_P1;SDS_P2;PMS_P1;PMS_P2;Temp;Humidity;BMP_temperature;BMP_pressure;BME280_temperature;BME280_humidity;BME280_pressure;Samples;Min_cycle;Max_cycle;Signal;HPM_P1;HPM_P2
2022/09/18 00:01:26;;;;;;;0.80;0.80;;;;;;;;;;4952964;28;20770;-58
2022/09/18 00:03:58;;;;;;;0.70;0.70;;;;;;;;;;4949294;28;20668;-57
2022/09/18 00:06:25;;;;;;;0.70;0.70;;;;;;;;;;4942301;28;20230;-58
2022/09/18 00:08:51;;;;;;;0.90;0.90;;;;;;;;;;4940537;28;20239;-58
2022/09/18 00:11:17;;;;;;;0.90;0.90;;;;;;;;;;4943298;28;26017;-57
2022/09/18 00:13:43;;;;;;;0.70;0.70;;;;;;;;;;4943435;28;20238;-58
2022/09/18 00:16:10;;;;;;;0.70;0.70;;;;;;;;;;4942058;28;20605;-58
2022/09/18 00:18:36;;;;;;;0.90;0.90;;;;;;;;;;4954387;28;20286;-57
2022/09/18 00:21:03;;;;;;;0.70;0.70;;;;;;;;;;4930383;28;20670;-58
2022/09/18 00:23:29;;;;;;;0.80;0.80;;;;;;;;;;4955392;28;20250;-58
2022/09/18 00:25:55;;;;;;;0.80;0.80;;;;;;;;;;4922690;28;20261;-57
2022/09/18 00:28:21;;;;;;;0.90;0.90;;;;;;;;;;4926006;28;20233;-57
2022/09/18 00:30:47;;;;;;;0.70;0.70;;;;;;;;;;4935873;28;20235;-57
2022/09/18 00:33:13;;;;;;;0.90;0.90;;;;;;;;;;4946170;28;20233;-58
2022/09/18 00:35:42;;;;;;;0.80;0.80;;;;;;;;;;4941726;28;20506;-58
2022/09/18 00:38:08;;;;;;;0.90;0.90;;;;;;;;;;4924820;28;20250;-58
2022/09/18 00:40:34;;;;;;;1.07;1.07;;;;;;;;;;4927311;28;20579;-57
2022/09/18 00:43:20;;;;;;;0.80;0.80;;;;;;;;;;4931659;28;21921;-58
2022/09/18 00:45:46;;;;;;;0.70;0.70;;;;;;;;;;4913743;28;20359;-58
2022/09/18 00:48:12;;;;;;;0.70;0.70;;;;;;;;;;4928504;28;20238;-57
2022/09/18 00:50:38;;;;;;;0.97;0.97;;;;;;;;;;4934148;28;21559;-58
2022/09/18 00:53:05;;;;;;;0.80;0.80;;;;;;;;;;4938011;28;20795;-57
2022/09/18 00:55:34;;;;;;;0.90;0.90;;;;;;;;;;4930523;28;20220;-57
2022/09/18 00:58:00;;;;;;;0.87;0.87;;;;;;;;;;4934669;28;20641;-57
2022/09/18 01:00:28;;;;;;;0.90;0.90;;;;;;;;;;4929031;28;20233;-58
2022/09/18 01:02:54;;;;;;;0.67;0.67;;;;;;;;;;4943415;28;20231;-57
2022/09/18 01:05:43;;;;;;;0.70;0.70;;;;;;;;;;4948281;28;20721;-58
2022/09/18 01:08:13;;;;;;;0.77;0.77;;;;;;;;;;4914033;28;20251;-58
2022/09/18 01:10:39;;;;;;;0.70;0.70;;;;;;;;;;4946120;28;20226;-58
2022/09/18 01:13:25;;;;;;;0.90;0.90;;;;;;;;;;4944971;28;21360;-57
2022/09/18 01:16:04;;;;;;;0.80;0.80;;;;;;;;;;4944725;28;20257;-58
2022/09/18 01:18:49;;;;;;;0.90;0.90;;;;;;;;;;4948261;28;20727;-59
2022/09/18 01:21:30;;;;;;;0.70;0.70;;;;;;;;;;4912142;28;20269;-57
2022/09/18 01:24:14;;;;;;;0.70;0.70;;;;;;;;;;4938075;28;20240;-58
2022/09/18 01:26:43;;;;;;;0.80;0.80;;;;;;;;;;4941086;28;20243;-57
2022/09/18 01:29:09;;;;;;;0.80;0.80;;;;;;;;;;4911523;28;20249;-57
2022/09/18 01:31:39;;;;;;;0.80;0.80;;;;;;;;;;4949285;28;20226;-58
2022/09/18 01:34:11;;;;;;;0.90;0.90;;;;;;;;;;4945453;28;20613;-57
2022/09/18 01:36:37;;;;;;;0.80;0.80;;;;;;;;;;4962400;28;20249;-57
2022/09/18 01:39:11;;;;;;;0.70;0.70;;;;;;;;;;4961588;28;20219;-58
2022/09/18 01:41:37;;;;;;;0.70;0.70;;;;;;;;;;4919236;28;21268;-57
2022/09/18 01:44:04;;;;;;;0.90;0.90;;;;;;;;;;4908603;28;21138;-57
2022/09/18 01:46:30;;;;;;;0.73;0.73;;;;;;;;;;4931773;28;20222;-58
2022/09/18 01:49:09;;;;;;;0.80;0.80;;;;;;;;;;4911779;28;20852;-58
2022/09/18 01:51:36;;;;;;;0.70;0.70;;;;;;;;;;4927006;28;20686;-57
2022/09/18 01:54:03;;;;;;;0.83;0.83;;;;;;;;;;4933960;28;20320;-58
2022/09/18 01:56:32;;;;;;;0.80;0.80;;;;;;;;;;4921256;28;20269;-58
2022/09/18 01:58:59;;;;;;;0.97;0.97;;;;;;;;;;4942422;28;20317;-58
2022/09/18 02:01:25;;;;;;;0.80;0.80;;;;;;;;;;4931713;28;20247;-58
2022/09/18 02:03:53;;;;;;;0.90;0.90;;;;;;;;;;4958190;28;20231;-58
2022/09/18 02:06:27;;;;;;;0.80;0.80;;;;;;;;;;4966098;28;20715;-58
2022/09/18 02:08:53;;;;;;;0.80;0.80;;;;;;;;;;4935737;28;20273;-58
2022/09/18 02:11:20;;;;;;;0.80;0.80;;;;;;;;;;4962747;28;20222;-58
2022/09/18 02:13:48;;;;;;;0.80;0.80;;;;;;;;;;4941648;28;20700;-57
2022/09/18 02:16:19;;;;;;;0.80;0.80;;;;;;;;;;4959831;28;20285;-58
2022/09/18 02:18:46;;;;;;;0.90;0.90;;;;;;;;;;4959361;28;20275;-57
2022/09/18 02:21:13;;;;;;;0.90;0.90;;;;;;;;;;4946565;28;20235;-58
2022/09/18 02:23:39;;;;;;;0.80;0.80;;;;;;;;;;4942762;28;20223;-58
2022/09/18 02:26:06;;;;;;;1.00;1.00;;;;;;;;;;4948017;28;20627;-58
2022/09/18 02:28:32;;;;;;;0.90;0.90;;;;;;;;;;4946686;28;20747;-58
2022/09/18 02:30:58;;;;;;;0.93;0.93;;;;;;;;;;4896318;28;20239;-57
2022/09/18 02:33:37;;;;;;;0.80;0.80;;;;;;;;;;4945680;28;20289;-57
2022/09/18 02:36:03;;;;;;;0.70;0.70;;;;;;;;;;4949874;28;20239;-58
2022/09/18 02:38:31;;;;;;;1.00;1.00;;;;;;;;;;4941165;28;20270;-58
2022/09/18 02:41:15;;;;;;;0.80;0.80;;;;;;;;;;4925369;28;20220;-58
2022/09/18 02:43:41;;;;;;;0.80;0.80;;;;;;;;;;4926726;28;21857;-58
2022/09/18 02:46:27;;;;;;;0.90;0.90;;;;;;;;;;4924408;28;22023;-58
2022/09/18 02:48:59;;;;;;;0.90;0.90;;;;;;;;;;4885009;28;20234;-58
2022/09/18 02:51:27;;;;;;;0.80;0.80;;;;;;;;;;4916672;28;20230;-57
2022/09/18 02:53:53;;;;;;;0.70;0.70;;;;;;;;;;4920523;28;20223;-58
2022/09/18 02:56:33;;;;;;;0.80;0.80;;;;;;;;;;4926232;28;20232;-58
2022/09/18 02:59:03;;;;;;;0.80;0.80;;;;;;;;;;4916082;28;20227;-58
2022/09/18 03:01:29;;;;;;;0.80;0.80;;;;;;;;;;4917948;28;20246;-58
2022/09/18 03:03:55;;;;;;;0.80;0.80;;;;;;;;;;4946668;28;20240;-58
2022/09/18 03:06:21;;;;;;;0.70;0.70;;;;;;;;;;4934193;28;20331;-59
2022/09/18 03:08:48;;;;;;;0.70;0.70;;;;;;;;;;4948938;28;20227;-58
2022/09/18 03:11:14;;;;;;;0.97;0.97;;;;;;;;;;4955872;28;20233;-58
2022/09/18 03:13:40;;;;;;;0.70;0.70;;;;;;;;;;4938642;28;20751;-58
2022/09/18 03:16:06;;;;;;;0.90;0.90;;;;;;;;;;4955305;28;20214;-58
2022/09/18 03:18:32;;;;;;;0.70;0.70;;;;;;;;;;4954452;28;20677;-58
2022/09/18 03:20:58;;;;;;;0.70;0.70;;;;;;;;;;4959109;28;20238;-58
2022/09/18 03:23:24;;;;;;;0.87;0.87;;;;;;;;;;4935040;28;20229;-58
2022/09/18 03:25:50;;;;;;;0.70;0.70;;;;;;;;;;4939120;28;20265;-58
2022/09/18 03:28:17;;;;;;;0.70;0.70;;;;;;;;;;4944836;28;20284;-58
2022/09/18 03:30:43;;;;;;;0.87;0.87;;;;;;;;;;4944305;28;20341;-58
2022/09/18 03:33:09;;;;;;;0.70;0.70;;;;;;;;;;4944296;28;20780;-58
2022/09/18 03:35:35;;;;;;;0.83;0.83;;;;;;;;;;4938499;28;20227;-59
2022/09/18 03:38:01;;;;;;;1.00;1.00;;;;;;;;;;4938978;28;20267;-59
2022/09/18 03:40:28;;;;;;;0.80;0.80;;;;;;;;;;4933288;28;20238;-59
2022/09/18 03:42:54;;;;;;;0.80;0.80;;;;;;;;;;4938495;28;20330;-59
2022/09/18 03:45:19;;;;;;;0.90;0.90;;;;;;;;;;4931729;28;20714;-57
2022/09/18 03:47:46;;;;;;;0.90;0.90;;;;;;;;;;4935623;28;20901;-57
2022/09/18 03:50:12;;;;;;;1.00;1.00;;;;;;;;;;4935788;28;20257;-58
2022/09/18 03:52:38;;;;;;;0.77;0.77;;;;;;;;;;4938082;28;20258;-58
2022/09/18 03:55:04;;;;;;;0.90;0.90;;;;;;;;;;4937607;28;20317;-58
2022/09/18 03:57:30;;;;;;;0.80;0.80;;;;;;;;;;4932924;28;20702;-58
2022/09/18 03:59:56;;;;;;;0.70;0.70;;;;;;;;;;4933454;28;21901;-58
2022/09/18 04:02:21;;;;;;;0.80;0.80;;;;;;;;;;4937036;28;20237;-59
2022/09/18 04:04:47;;;;;;;0.80;0.80;;;;;;;;;;4943222;28;20293;-59
2022/09/18 04:07:13;;;;;;;0.80;0.80;;;;;;;;;;4944297;28;20230;-58
2022/09/18 04:09:39;;;;;;;0.90;0.90;;;;;;;;;;4916681;28;20885;-59
2022/09/18 04:12:05;;;;;;;0.80;0.80;;;;;;;;;;4925184;28;20763;-59
2022/09/18 04:14:31;;;;;;;0.83;0.83;;;;;;;;;;4928670;28;20238;-58
2022/09/18 04:16:57;;;;;;;0.70;0.70;;;;;;;;;;4934498;28;20219;-57
2022/09/18 04:19:23;;;;;;;0.70;0.70;;;;;;;;;;4926301;28;20228;-58
2022/09/18 04:21:49;;;;;;;0.97;0.97;;;;;;;;;;4920038;28;20231;-58
2022/09/18 04:24:15;;;;;;;0.80;0.80;;;;;;;;;;4951289;28;20751;-58
2022/09/18 04:26:41;;;;;;;0.80;0.80;;;;;;;;;;4947800;28;20605;-58
2022/09/18 04:29:07;;;;;;;0.70;0.70;;;;;;;;;;4943722;28;20342;-58
2022/09/18 04:31:33;;;;;;;0.70;0.70;;;;;;;;;;4946973;28;20227;-60
2022/09/18 04:33:59;;;;;;;0.97;0.97;;;;;;;;;;4956189;28;20233;-59
2022/09/18 04:36:25;;;;;;;0.80;0.80;;;;;;;;;;4952748;28;20966;-59
2022/09/18 04:38:51;;;;;;;0.97;0.97;;;;;;;;;;4930026;28;20446;-58
2022/09/18 04:41:17;;;;;;;0.80;0.80;;;;;;;;;;4938968;28;20615;-57
2022/09/18 04:43:43;;;;;;;0.80;0.80;;;;;;;;;;4926091;28;20254;-59
2022/09/18 04:46:09;;;;;;;0.90;0.90;;;;;;;;;;4920797;28;20247;-58
2022/09/18 04:48:35;;;;;;;0.90;0.90;;;;;;;;;;4935339;28;20392;-58
2022/09/18 04:51:01;;;;;;;0.90;0.90;;;;;;;;;;4931134;28;20922;-59
2022/09/18 04:53:27;;;;;;;0.83;0.83;;;;;;;;;;4931887;28;20995;-57
2022/09/18 04:55:53;;;;;;;0.70;0.70;;;;;;;;;;4916560;28;20237;-58
2022/09/18 04:58:19;;;;;;;1.00;1.00;;;;;;;;;;4936940;28;20711;-58
2022/09/18 05:00:48;;;;;;;0.80;0.80;;;;;;;;;;4933117;28;21316;-57
2022/09/18 05:03:14;;;;;;;0.80;0.80;;;;;;;;;;4943343;28;20963;-58
2022/09/18 05:05:40;;;;;;;0.80;0.80;;;;;;;;;;4952153;28;20227;-57
2022/09/18 05:08:06;;;;;;;0.70;0.70;;;;;;;;;;4954432;28;20237;-58
2022/09/18 05:10:32;;;;;;;0.80;0.80;;;;;;;;;;4940524;28;20228;-59
2022/09/18 05:12:58;;;;;;;0.70;0.70;;;;;;;;;;4946402;28;20699;-58
2022/09/18 05:15:24;;;;;;;0.80;0.80;;;;;;;;;;4951288;28;20218;-58
2022/09/18 05:17:57;;;;;;;1.13;1.13;;;;;;;;;;4941108;28;20245;-58
2022/09/18 05:20:23;;;;;;;0.80;0.80;;;;;;;;;;4926265;28;20224;-59
2022/09/18 05:22:49;;;;;;;0.80;0.80;;;;;;;;;;4947700;28;20249;-58
2022/09/18 05:25:15;;;;;;;0.80;0.80;;;;;;;;;;4951316;28;20223;-58
2022/09/18 05:27:41;;;;;;;0.80;0.80;;;;;;;;;;4949809;28;20719;-59
2022/09/18 05:30:07;;;;;;;0.90;0.90;;;;;;;;;;4947800;28;20505;-58
2022/09/18 05:32:33;;;;;;;0.73;0.73;;;;;;;;;;4948998;28;20271;-59
2022/09/18 05:34:59;;;;;;;0.90;0.90;;;;;;;;;;4943804;28;20240;-58
2022/09/18 05:37:25;;;;;;;0.97;0.97;;;;;;;;;;4952943;28;20214;-58
2022/09/18 05:39:51;;;;;;;0.80;0.80;;;;;;;;;;4940144;28;20229;-57
2022/09/18 05:42:17;;;;;;;0.80;0.80;;;;;;;;;;4941914;28;20289;-57
2022/09/18 05:44:43;;;;;;;0.80;0.80;;;;;;;;;;4940143;28;20691;-58
2022/09/18 05:47:09;;;;;;;1.00;1.00;;;;;;;;;;4931567;28;20808;-58
2022/09/18 05:49:35;;;;;;;0.70;0.70;;;;;;;;;;4945004;28;20754;-58
2022/09/18 05:52:01;;;;;;;0.90;0.90;;;;;;;;;;4937640;28;20210;-58
2022/09/18 05:54:27;;;;;;;0.70;0.70;;;;;;;;;;4948888;28;20246;-57
2022/09/18 05:56:53;;;;;;;1.00;1.00;;;;;;;;;;4949246;28;20305;-58
2022/09/18 05:59:19;;;;;;;0.80;0.80;;;;;;;;;;4948654;28;20219;-58
2022/09/18 06:01:45;;;;;;;0.80;0.80;;;;;;;;;;4945194;28;20228;-59
2022/09/18 06:04:11;;;;;;;0.97;0.97;;;;;;;;;;4945024;28;20302;-58
2022/09/18 06:06:37;;;;;;;0.80;0.80;;;;;;;;;;4943117;28;20239;-57
2022/09/18 06:09:03;;;;;;;0.80;0.80;;;;;;;;;;4942638;28;20238;-58
2022/09/18 06:11:29;;;;;;;0.90;0.90;;;;;;;;;;4945931;28;20234;-58
2022/09/18 06:13:55;;;;;;;0.70;0.70;;;;;;;;;;4938845;28;20278;-58
2022/09/18 06:16:20;;;;;;;0.80;0.80;;;;;;;;;;4946623;28;20748;-58
2022/09/18 06:18:46;;;;;;;0.80;0.80;;;;;;;;;;4949122;28;20206;-58
2022/09/18 06:21:13;;;;;;;0.90;0.90;;;;;;;;;;4947954;28;20255;-57
2022/09/18 06:23:40;;;;;;;0.90;0.90;;;;;;;;;;4939236;28;20235;-58
2022/09/18 06:26:06;;;;;;;0.80;0.80;;;;;;;;;;4939789;28;20776;-58
2022/09/18 06:28:33;;;;;;;0.70;0.70;;;;;;;;;;4935628;28;20232;-58
2022/09/18 06:30:59;;;;;;;0.70;0.70;;;;;;;;;;4944074;28;20238;-58
2022/09/18 06:33:25;;;;;;;0.97;0.97;;;;;;;;;;4941966;28;21190;-57
2022/09/18 06:35:51;;;;;;;0.80;0.80;;;;;;;;;;4950064;28;20248;-58
2022/09/18 06:38:17;;;;;;;0.80;0.80;;;;;;;;;;4952499;28;20218;-58
2022/09/18 06:40:51;;;;;;;0.90;0.90;;;;;;;;;;4942796;28;20238;-58
2022/09/18 06:43:18;;;;;;;0.93;0.93;;;;;;;;;;4944705;28;20283;-58
2022/09/18 06:45:44;;;;;;;0.90;0.90;;;;;;;;;;4936988;28;20231;-59
2022/09/18 06:48:10;;;;;;;0.90;0.90;;;;;;;;;;4949536;28;20262;-58
2022/09/18 06:50:36;;;;;;;0.97;0.97;;;;;;;;;;4948985;28;20365;-57
2022/09/18 06:53:02;;;;;;;0.80;0.80;;;;;;;;;;4952447;28;21238;-60
2022/09/18 06:55:28;;;;;;;0.80;0.80;;;;;;;;;;4946541;28;20960;-58
2022/09/18 06:57:54;;;;;;;0.90;0.90;;;;;;;;;;4950990;28;20226;-58
2022/09/18 07:00:20;;;;;;;0.90;0.90;;;;;;;;;;4939056;28;20712;-57
2022/09/18 07:02:46;;;;;;;0.80;0.80;;;;;;;;;;4939380;28;21247;-58
2022/09/18 07:05:12;;;;;;;0.90;0.90;;;;;;;;;;4944990;28;20410;-57
2022/09/18 07:07:38;;;;;;;0.90;0.90;;;;;;;;;;4931218;28;20479;-59
2022/09/18 07:10:04;;;;;;;0.90;0.90;;;;;;;;;;4953280;28;20262;-60
2022/09/18 07:12:30;;;;;;;0.70;0.70;;;;;;;;;;4937606;28;20235;-57
2022/09/18 07:14:56;;;;;;;0.90;0.90;;;;;;;;;;4940258;28;20368;-57
2022/09/18 07:17:22;;;;;;;0.80;0.80;;;;;;;;;;4939973;28;20716;-57
2022/09/18 07:19:48;;;;;;;0.90;0.90;;;;;;;;;;4944099;28;20308;-58
2022/09/18 07:22:14;;;;;;;0.83;0.83;;;;;;;;;;4950705;28;20227;-57
2022/09/18 07:24:40;;;;;;;0.80;0.80;;;;;;;;;;4947680;28;20234;-57
2022/09/18 07:27:06;;;;;;;0.80;0.80;;;;;;;;;;4941748;28;20239;-56
2022/09/18 07:29:32;;;;;;;0.70;0.70;;;;;;;;;;4940704;28;20247;-58
2022/09/18 07:31:58;;;;;;;0.70;0.70;;;;;;;;;;4939348;28;20242;-57
2022/09/18 07:34:24;;;;;;;0.97;0.97;;;;;;;;;;4921786;28;20262;-58
2022/09/18 07:36:50;;;;;;;0.70;0.70;;;;;;;;;;4936968;28;20254;-57
2022/09/18 07:39:16;;;;;;;0.80;0.80;;;;;;;;;;4946184;28;20230;-57
2022/09/18 07:41:42;;;;;;;0.90;0.90;;;;;;;;;;4952115;28;20769;-58
2022/09/18 07:44:09;;;;;;;0.70;0.70;;;;;;;;;;4948234;28;20281;-57
2022/09/18 07:46:35;;;;;;;0.80;0.80;;;;;;;;;;4948032;28;20263;-57
2022/09/18 07:49:01;;;;;;;0.77;0.77;;;;;;;;;;4950885;28;20322;-57
2022/09/18 07:51:27;;;;;;;1.00;1.00;;;;;;;;;;4948883;28;20329;-57
2022/09/18 07:53:53;;;;;;;0.70;0.70;;;;;;;;;;4950703;28;20256;-57
2022/09/18 07:56:19;;;;;;;0.90;0.90;;;;;;;;;;4948310;28;20314;-58
2022/09/18 07:58:45;;;;;;;0.80;0.80;;;;;;;;;;4937617;28;20704;-57
2022/09/18 08:01:11;;;;;;;0.70;0.70;;;;;;;;;;4940978;28;20249;-57
2022/09/18 08:03:37;;;;;;;0.60;0.60;;;;;;;;;;4938390;28;20841;-57
2022/09/18 08:06:03;;;;;;;0.80;0.80;;;;;;;;;;4945277;28;20227;-57
2022/09/18 08:08:29;;;;;;;0.80;0.80;;;;;;;;;;4936805;28;20240;-58
2022/09/18 08:10:55;;;;;;;0.60;0.60;;;;;;;;;;4955067;28;20238;-57
2022/09/18 08:13:21;;;;;;;0.70;0.70;;;;;;;;;;4949368;28;20321;-57
2022/09/18 08:15:47;;;;;;;0.70;0.70;;;;;;;;;;4954058;28;20764;-57
2022/09/18 08:18:13;;;;;;;0.80;0.80;;;;;;;;;;4949709;28;20223;-57
2022/09/18 08:20:40;;;;;;;0.90;0.90;;;;;;;;;;4954054;28;20338;-58
2022/09/18 08:23:08;;;;;;;0.90;0.90;;;;;;;;;;4949743;28;20591;-56
2022/09/18 08:25:34;;;;;;;0.80;0.80;;;;;;;;;;4947048;28;20212;-57
2022/09/18 08:28:02;;;;;;;0.90;0.90;;;;;;;;;;4947273;28;20785;-57
2022/09/18 08:30:29;;;;;;;0.70;0.70;;;;;;;;;;4954666;28;20247;-57
2022/09/18 08:32:58;;;;;;;0.70;0.70;;;;;;;;;;4932859;28;20262;-57
2022/09/18 08:35:24;;;;;;;1.00;1.00;;;;;;;;;;4952324;28;20225;-57
2022/09/18 08:37:50;;;;;;;0.70;0.70;;;;;;;;;;4945247;28;20222;-58
2022/09/18 08:40:16;;;;;;;0.80;0.80;;;;;;;;;;4933771;28;20245;-57
2022/09/18 08:42:57;;;;;;;0.80;0.80;;;;;;;;;;4928212;28;22480;-58
2022/09/18 08:45:39;;;;;;;0.80;0.80;;;;;;;;;;4924853;28;21222;-57
2022/09/18 08:48:06;;;;;;;0.80;0.80;;;;;;;;;;4947211;28;20806;-58
2022/09/18 08:50:33;;;;;;;0.70;0.70;;;;;;;;;;4940382;28;20231;-57
2022/09/18 08:53:02;;;;;;;0.80;0.80;;;;;;;;;;4953312;28;20230;-57
2022/09/18 08:55:32;;;;;;;0.70;0.70;;;;;;;;;;4948982;28;20275;-57
2022/09/18 08:58:02;;;;;;;0.80;0.80;;;;;;;;;;4921213;28;20601;-57
2022/09/18 09:00:33;;;;;;;0.80;0.80;;;;;;;;;;4945147;28;20238;-57
2022/09/18 09:03:18;;;;;;;0.90;0.90;;;;;;;;;;4940820;28;20254;-57
2022/09/18 09:05:48;;;;;;;0.80;0.80;;;;;;;;;;4943783;28;20565;-57
2022/09/18 09:08:17;;;;;;;0.70;0.70;;;;;;;;;;4926228;28;20312;-58
2022/09/18 09:10:46;;;;;;;0.70;0.70;;;;;;;;;;4941014;28;20589;-58
2022/09/18 09:13:19;;;;;;;0.80;0.80;;;;;;;;;;4941323;28;20262;-56
2022/09/18 09:16:04;;;;;;;0.90;0.90;;;;;;;;;;4942861;28;20300;-58
2022/09/18 09:18:36;;;;;;;0.80;0.80;;;;;;;;;;4935776;28;20223;-57
2022/09/18 09:21:11;;;;;;;0.70;0.70;;;;;;;;;;4953897;28;20235;-58
2022/09/18 09:23:42;;;;;;;0.70;0.70;;;;;;;;;;4936236;28;20718;-58
2022/09/18 09:26:08;;;;;;;0.60;0.60;;;;;;;;;;4949216;28;20727;-58
2022/09/18 09:28:52;;;;;;;0.70;0.70;;;;;;;;;;4963811;28;21126;-58
2022/09/18 09:31:19;;;;;;;0.70;0.70;;;;;;;;;;4949417;28;20238;-57
2022/09/18 09:33:49;;;;;;;0.80;0.80;;;;;;;;;;4961720;28;20238;-58
2022/09/18 09:36:16;;;;;;;0.80;0.80;;;;;;;;;;4938396;28;20243;-58
2022/09/18 09:38:53;;;;;;;0.87;0.87;;;;;;;;;;4954729;28;20227;-58
2022/09/18 09:41:21;;;;;;;0.70;0.70;;;;;;;;;;4935352;28;20234;-58
2022/09/18 09:43:55;;;;;;;0.80;0.80;;;;;;;;;;4926240;28;20239;-58
2022/09/18 09:46:25;;;;;;;0.80;0.80;;;;;;;;;;4941707;28;20258;-57
2022/09/18 09:48:59;;;;;;;0.60;0.60;;;;;;;;;;4947221;28;20305;-58
2022/09/18 09:51:36;;;;;;;0.70;0.70;;;;;;;;;;4949309;28;20236;-58
2022/09/18 09:54:02;;;;;;;0.67;0.67;;;;;;;;;;4953295;28;20297;-58
2022/09/18 09:56:31;;;;;;;0.70;0.70;;;;;;;;;;4925486;28;20222;-57
2022/09/18 09:59:15;;;;;;;0.73;0.73;;;;;;;;;;4922973;28;20255;-57
2022/09/18 10:01:49;;;;;;;0.80;0.80;;;;;;;;;;4932451;28;20217;-56
2022/09/18 10:04:24;;;;;;;0.90;0.90;;;;;;;;;;4914313;28;20233;-56
2022/09/18 10:06:57;;;;;;;0.80;0.80;;;;;;;;;;4947262;28;20619;-57
2022/09/18 10:09:42;;;;;;;0.80;0.80;;;;;;;;;;4917029;28;20282;-56
2022/09/18 10:12:27;;;;;;;0.70;0.70;;;;;;;;;;4940736;28;20291;-57
2022/09/18 10:14:53;;;;;;;0.70;0.70;;;;;;;;;;4948789;28;20310;-57
2022/09/18 10:17:19;;;;;;;0.70;0.70;;;;;;;;;;4934526;28;20653;-57
2022/09/18 10:19:45;;;;;;;0.80;0.80;;;;;;;;;;4926067;28;20221;-56
2022/09/18 10:22:12;;;;;;;1.00;1.00;;;;;;;;;;4933569;28;20234;-57
2022/09/18 10:24:40;;;;;;;1.10;1.10;;;;;;;;;;4934237;28;20595;-58
2022/09/18 10:27:10;;;;;;;1.10;1.10;;;;;;;;;;4928551;28;20278;-56
2022/09/18 10:29:36;;;;;;;0.90;0.90;;;;;;;;;;4936712;28;20250;-57
2022/09/18 10:32:02;;;;;;;1.20;1.20;;;;;;;;;;4949944;28;20692;-56
2022/09/18 10:34:31;;;;;;;1.00;1.00;;;;;;;;;;4944475;28;20298;-56
2022/09/18 10:36:57;;;;;;;1.10;1.10;;;;;;;;;;4944156;28;20599;-57
2022/09/18 10:39:28;;;;;;;1.10;1.10;;;;;;;;;;4939639;28;20220;-56
2022/09/18 10:42:00;;;;;;;0.90;0.90;;;;;;;;;;4945464;28;20222;-56
2022/09/18 10:44:30;;;;;;;1.00;1.00;;;;;;;;;;4952409;28;20325;-56
2022/09/18 10:46:59;;;;;;;1.10;1.10;;;;;;;;;;4940419;28;20231;-56
2022/09/18 10:49:29;;;;;;;0.90;0.90;;;;;;;;;;4941808;28;20233;-58
2022/09/18 10:52:14;;;;;;;1.23;1.23;;;;;;;;;;4923333;28;20230;-56
2022/09/18 10:54:40;;;;;;;1.10;1.10;;;;;;;;;;4936671;28;20223;-56
2022/09/18 10:57:24;;;;;;;1.00;1.00;;;;;;;;;;4918048;28;20255;-56
2022/09/18 10:59:50;;;;;;;1.20;1.20;;;;;;;;;;4925665;28;20743;-57
2022/09/18 11:02:17;;;;;;;1.30;1.30;;;;;;;;;;4944582;28;20345;-57
2022/09/18 11:04:45;;;;;;;1.10;1.10;;;;;;;;;;4927749;28;20232;-57
2022/09/18 11:07:11;;;;;;;1.10;1.10;;;;;;;;;;4948861;28;20288;-55
2022/09/18 11:09:38;;;;;;;1.00;1.00;;;;;;;;;;4942727;28;20252;-56
2022/09/18 11:12:04;;;;;;;1.10;1.10;;;;;;;;;;4921809;28;20793;-56
2022/09/18 11:14:40;;;;;;;1.00;1.00;;;;;;;;;;4931679;28;20234;-56
2022/09/18 11:17:06;;;;;;;1.00;1.00;;;;;;;;;;4923103;28;20222;-56
2022/09/18 11:19:33;;;;;;;1.10;1.10;;;;;;;;;;4932280;28;21766;-57
2022/09/18 11:22:02;;;;;;;0.90;0.90;;;;;;;;;;4929512;28;20252;-58
2022/09/18 11:24:33;;;;;;;1.00;1.00;;;;;;;;;;4936910;28;20234;-56
2022/09/18 11:27:03;;;;;;;1.10;1.10;;;;;;;;;;4927846;28;20329;-56
2022/09/18 11:29:32;;;;;;;1.00;1.00;;;;;;;;;;4918240;28;20431;-57
2022/09/18 11:32:02;;;;;;;0.90;0.90;;;;;;;;;;4917341;28;20983;-55
2022/09/18 11:34:29;;;;;;;0.93;0.93;;;;;;;;;;4928834;28;20231;-57
2022/09/18 11:36:57;;;;;;;1.00;1.00;;;;;;;;;;4923243;28;20327;-55
2022/09/18 11:39:24;;;;;;;0.90;0.90;;;;;;;;;;4906580;28;20630;-57
2022/09/18 11:41:50;;;;;;;0.90;0.90;;;;;;;;;;4942723;28;20222;-58
2022/09/18 11:44:24;;;;;;;1.07;1.07;;;;;;;;;;4947618;28;20257;-56
2022/09/18 11:47:09;;;;;;;1.17;1.17;;;;;;;;;;4906708;28;20235;-56
2022/09/18 11:49:36;;;;;;;1.10;1.10;;;;;;;;;;4944963;28;20226;-55
2022/09/18 11:52:12;;;;;;;1.30;1.30;;;;;;;;;;4931149;28;20700;-55
2022/09/18 11:54:58;;;;;;;1.20;1.20;;;;;;;;;;4923856;28;20237;-56
2022/09/18 11:57:30;;;;;;;1.10;1.10;;;;;;;;;;4940870;28;20278;-57
2022/09/18 11:59:57;;;;;;;1.00;1.00;;;;;;;;;;4942881;28;20250;-55
2022/09/18 12:02:29;;;;;;;1.10;1.10;;;;;;;;;;4942516;28;20351;-55
2022/09/18 12:04:58;;;;;;;1.10;1.10;;;;;;;;;;4938866;28;20231;-55
2022/09/18 12:07:32;;;;;;;1.23;1.23;;;;;;;;;;4948128;28;20222;-55
2022/09/18 12:10:02;;;;;;;1.27;1.27;;;;;;;;;;4927957;28;20719;-57
2022/09/18 12:12:29;;;;;;;1.40;1.40;;;;;;;;;;4943487;28;20219;-56
2022/09/18 12:15:06;;;;;;;1.40;1.40;;;;;;;;;;4927179;28;20882;-56
2022/09/18 12:17:35;;;;;;;1.40;1.40;;;;;;;;;;4925790;28;20278;-56
2022/09/18 12:20:02;;;;;;;1.30;1.30;;;;;;;;;;4924695;28;20632;-56
2022/09/18 12:22:44;;;;;;;1.60;1.60;;;;;;;;;;4908197;28;21795;-56
2022/09/18 12:25:14;;;;;;;1.13;1.13;;;;;;;;;;4920337;28;20313;-55
2022/09/18 12:27:46;;;;;;;1.20;1.20;;;;;;;;;;4940790;28;21054;-58
2022/09/18 12:30:12;;;;;;;1.40;1.40;;;;;;;;;;4943214;28;20346;-56
2022/09/18 12:32:58;;;;;;;1.47;1.47;;;;;;;;;;4935389;28;20309;-56
2022/09/18 12:35:24;;;;;;;1.10;1.10;;;;;;;;;;4935118;28;20266;-56
2022/09/18 12:38:12;;;;;;;1.03;1.03;;;;;;;;;;4946631;28;21042;-56
2022/09/18 12:40:47;;;;;;;1.20;1.20;;;;;;;;;;4935964;28;20232;-56
2022/09/18 12:43:32;;;;;;;1.20;1.20;;;;;;;;;;4941017;28;20291;-58
2022/09/18 12:46:03;;;;;;;1.10;1.10;;;;;;;;;;4934355;28;20237;-55
2022/09/18 12:48:38;;;;;;;1.37;1.37;;;;;;;;;;4934311;28;20614;-56
2022/09/18 12:51:10;;;;;;;1.10;1.10;;;;;;;;;;4945340;28;20239;-57
2022/09/18 12:53:56;;;;;;;1.00;1.00;;;;;;;;;;4937025;28;20238;-57
2022/09/18 12:56:22;;;;;;;1.30;1.30;;;;;;;;;;4936157;28;20841;-57
2022/09/18 12:58:56;;;;;;;1.00;1.00;;;;;;;;;;4925584;28;20265;-56
2022/09/18 13:01:25;;;;;;;1.10;1.10;;;;;;;;;;4934708;28;20991;-56
2022/09/18 13:03:53;;;;;;;0.90;0.90;;;;;;;;;;4945963;28;20230;-56
2022/09/18 13:06:22;;;;;;;1.00;1.00;;;;;;;;;;4929673;28;20219;-55
2022/09/18 13:08:48;;;;;;;1.20;1.20;;;;;;;;;;4930371;28;20640;-57
2022/09/18 13:11:24;;;;;;;1.10;1.10;;;;;;;;;;4950897;28;20223;-57
2022/09/18 13:13:54;;;;;;;1.03;1.03;;;;;;;;;;4946249;28;20234;-57
2022/09/18 13:16:34;;;;;;;1.00;1.00;;;;;;;;;;4945641;28;20234;-56
2022/09/18 13:19:17;;;;;;;1.10;1.10;;;;;;;;;;4938049;28;20546;-56
2022/09/18 13:21:43;;;;;;;0.90;0.90;;;;;;;;;;4948426;28;20238;-56
2022/09/18 13:24:16;;;;;;;1.00;1.00;;;;;;;;;;4937393;28;20253;-57
2022/09/18 13:26:44;;;;;;;1.20;1.20;;;;;;;;;;4913054;28;20374;-56
2022/09/18 13:29:28;;;;;;;1.20;1.20;;;;;;;;;;4931102;28;20297;-56
2022/09/18 13:31:54;;;;;;;1.03;1.03;;;;;;;;;;4935870;28;20258;-56
2022/09/18 13:34:21;;;;;;;1.10;1.10;;;;;;;;;;4916060;28;20321;-57
2022/09/18 13:36:47;;;;;;;1.10;1.10;;;;;;;;;;4927680;28;20230;-57
2022/09/18 13:39:17;;;;;;;0.90;0.90;;;;;;;;;;4923934;28;20232;-57
2022/09/18 13:41:44;;;;;;;1.00;1.00;;;;;;;;;;4919833;28;20284;-57
2022/09/18 13:44:18;;;;;;;1.00;1.00;;;;;;;;;;4924975;28;20839;-57
2022/09/18 13:46:44;;;;;;;1.20;1.20;;;;;;;;;;4935707;28;20227;-56
2022/09/18 13:49:22;;;;;;;1.20;1.20;;;;;;;;;;4945981;28;20892;-57
2022/09/18 13:51:48;;;;;;;1.20;1.20;;;;;;;;;;4955726;28;20376;-57
2022/09/18 13:54:16;;;;;;;1.10;1.10;;;;;;;;;;4943752;28;20230;-57
2022/09/18 13:57:09;;;;;;;0.90;0.90;;;;;;;;;;4944261;28;20222;-58
2022/09/18 13:59:47;;;;;;;1.10;1.10;;;;;;;;;;4928732;28;20788;-56
2022/09/18 14:02:21;;;;;;;1.20;1.20;;;;;;;;;;4940878;28;20364;-57
2022/09/18 14:04:49;;;;;;;1.30;1.30;;;;;;;;;;4941770;28;20227;-57
2022/09/18 14:07:18;;;;;;;1.10;1.10;;;;;;;;;;4948372;28;20321;-57
2022/09/18 14:10:04;;;;;;;1.00;1.00;;;;;;;;;;4920137;28;20238;-58
2022/09/18 14:12:31;;;;;;;1.10;1.10;;;;;;;;;;4934827;28;20258;-56
2022/09/18 14:15:00;;;;;;;1.00;1.00;;;;;;;;;;4941770;28;20218;-57
2022/09/18 14:17:27;;;;;;;0.90;0.90;;;;;;;;;;4943966;28;20365;-56
2022/09/18 14:19:58;;;;;;;1.30;1.30;;;;;;;;;;4930482;28;20234;-56
2022/09/18 14:22:36;;;;;;;1.20;1.20;;;;;;;;;;4908038;28;20290;-57
2022/09/18 14:25:05;;;;;;;1.00;1.00;;;;;;;;;;4950175;28;20245;-56
2022/09/18 14:28:03;;;;;;;1.00;1.00;;;;;;;;;;4948418;28;20311;-56
2022/09/18 14:30:29;;;;;;;1.00;1.00;;;;;;;;;;4910713;28;20824;-57
2022/09/18 14:33:04;;;;;;;1.00;1.00;;;;;;;;;;4944135;28;20222;-57
2022/09/18 14:35:45;;;;;;;1.10;1.10;;;;;;;;;;4938504;28;21262;-56
2022/09/18 14:38:26;;;;;;;1.03;1.03;;;;;;;;;;4907484;28;20309;-57
2022/09/18 14:40:54;;;;;;;1.13;1.13;;;;;;;;;;4917268;28;20228;-55
2022/09/18 14:43:20;;;;;;;1.30;1.30;;;;;;;;;;4914684;28;20227;-57
2022/09/18 14:45:47;;;;;;;1.00;1.00;;;;;;;;;;4907011;28;20707;-56
2022/09/18 14:48:34;;;;;;;1.10;1.10;;;;;;;;;;4898940;28;20230;-57
2022/09/18 14:51:02;;;;;;;1.07;1.07;;;;;;;;;;4919322;28;20241;-56
2022/09/18 14:53:28;;;;;;;0.90;0.90;;;;;;;;;;4918168;28;20725;-57
2022/09/18 14:55:59;;;;;;;0.90;0.90;;;;;;;;;;4925222;28;20281;-58